Main page
METAR-TAF:

METAR-TAF

Airports :

Ohio State University Airport

Columbus, Ohio, United States

latitude: 40-04-41N, longitude: 083-04-41W, elevation: 902 ft

Current weather observation

The report was made 53 minutes ago, at 19:53 UTC
Wind 12 mph from the North
Temperature 48°F
Humidity 61%
Pressure 29.98 in. Hg
Visibility: 10 miles
Broken clouds at a height of 2600 ft
Overcast at a height of 3200 ft

METAR: KOSU 011953Z 01010KT 10SM BKN026 OVC032 09/02 A2998 RMK AO2 SLP156 T00890022

Time: 16:46 (20:46 UTC)


TAF: missing

Weather observations and forecasts of more than 4000 airports (METAR and TAF reports).

The available stations are represented by yellow and red dots on the map.

Hover mouse over dot to see the name of the station.

Then click to see weather observations and forecasts.

To change the map : click on the green buttons with a black cross to zoom in, on the green button with a dash to zoom out, or on the green arrows for adjacent maps.


METAR-TAF: